EGEC/CAL METAR and TAF weather

Enter ICAO airport designator
Station Type Date Time Source
EGEC METAR 2018/09/21 16:20 UTC NOAA

EGEC 211620Z 29020KT 9999 FEW015CB SCT028 12/08 Q1007


Station Type Date Time Source
EGEC Decoded METAR 2018/09/21 16:20 UTC NOAA

Campbeltown, United Kingdom (EGEC) 55-26-14N 005-41-11W
Sep 21, 2018 - 12:20 PM EDT / 2018.09.21 1620 UTC
Wind: from the WNW (290 degrees) at 23 MPH (20 KT):0
Visibility: greater than 7 mile(s):0
Sky conditions: partly cloudy
Weather: Cumulonimbus clouds observed
Temperature: 53 F (12 C)
Dew Point: 46 F (8 C)
Relative Humidity: 76%
Pressure (altimeter): 29.74 in. Hg (1007 hPa)
ob: EGEC 211620Z 29020KT 9999 FEW015CB SCT028 12/08 Q1007
cycle: 16

Station Type Date Time Source
EGEC TAF UTC NOAA

Error!


Example: see airport list